createdAt,value
2018-07-06T00:00:47.335Z,3.70
2018-07-06T00:03:26.313Z,3.83
2018-07-06T00:06:05.285Z,3.47
2018-07-06T00:08:44.242Z,3.83
2018-07-06T00:11:23.184Z,3.60
2018-07-06T00:14:02.096Z,3.87
2018-07-06T00:16:41.027Z,4.00
2018-07-06T00:19:19.938Z,4.20
2018-07-06T00:21:58.757Z,3.67
2018-07-06T00:24:37.703Z,4.13
2018-07-06T00:27:16.668Z,4.40
2018-07-06T00:29:55.630Z,5.13
2018-07-06T00:32:34.515Z,4.60
2018-07-06T00:35:13.444Z,4.40
2018-07-06T00:37:52.288Z,4.53
2018-07-06T00:40:31.263Z,5.37
2018-07-06T00:43:10.271Z,5.30
2018-07-06T00:45:49.207Z,5.40
2018-07-06T00:48:28.139Z,4.90
2018-07-06T00:51:07.034Z,6.50
2018-07-06T00:53:46.053Z,5.20
2018-07-06T00:56:24.907Z,6.00
2018-07-06T00:59:03.864Z,5.63
2018-07-06T01:01:42.828Z,6.07
2018-07-06T01:04:21.650Z,6.10
2018-07-06T01:07:00.624Z,6.27
2018-07-06T01:09:39.978Z,6.63
2018-07-06T01:12:24.667Z,6.30
2018-07-06T01:15:09.572Z,7.00
2018-07-06T01:17:48.596Z,7.33
2018-07-06T01:20:27.370Z,7.03
2018-07-06T01:23:06.237Z,7.20
2018-07-06T01:25:45.199Z,6.90
2018-07-06T01:28:24.227Z,8.57
2018-07-06T01:31:02.920Z,8.03
2018-07-06T01:33:41.772Z,8.07
2018-07-06T01:36:20.781Z,9.50
2018-07-06T01:38:59.816Z,8.57
2018-07-06T01:41:38.753Z,9.30
2018-07-06T01:44:17.549Z,9.80
2018-07-06T01:46:56.394Z,8.83
2018-07-06T01:49:35.281Z,10.00
2018-07-06T01:52:14.313Z,10.43
2018-07-06T01:54:53.391Z,10.77
2018-07-06T01:57:32.340Z,11.67
2018-07-06T02:00:11.233Z,11.40
2018-07-06T02:02:50.260Z,11.30
2018-07-06T02:05:29.176Z,12.47
2018-07-06T02:08:08.185Z,13.30
2018-07-06T02:10:47.153Z,13.13
2018-07-06T02:13:26.089Z,12.97
2018-07-06T02:16:05.193Z,12.27
2018-07-06T02:18:44.216Z,11.50
2018-07-06T02:21:23.216Z,11.43
2018-07-06T02:24:02.004Z,10.90
2018-07-06T02:26:41.020Z,11.67
2018-07-06T02:29:19.900Z,10.57
2018-07-06T02:31:58.781Z,9.67
2018-07-06T02:34:37.533Z,10.53
2018-07-06T02:37:16.551Z,10.60
2018-07-06T02:39:55.388Z,11.00
2018-07-06T02:42:34.348Z,10.33
2018-07-06T02:45:13.381Z,10.70
2018-07-06T02:47:52.364Z,10.13
2018-07-06T02:50:31.275Z,11.37
2018-07-06T02:53:10.193Z,11.63
2018-07-06T02:55:49.036Z,10.83
2018-07-06T02:58:27.953Z,10.17
2018-07-06T03:01:06.768Z,10.53
2018-07-06T03:03:45.632Z,10.30
2018-07-06T03:06:24.744Z,10.57
2018-07-06T03:09:04.037Z,10.40
2018-07-06T03:11:42.923Z,10.20
2018-07-06T03:14:21.713Z,9.60
2018-07-06T03:17:00.748Z,10.40
2018-07-06T03:19:39.594Z,10.20
2018-07-06T03:22:18.510Z,9.23
2018-07-06T03:24:57.448Z,9.50
2018-07-06T03:27:36.349Z,9.73
2018-07-06T03:30:15.297Z,9.00
2018-07-06T03:32:54.159Z,9.87
2018-07-06T03:35:33.087Z,8.70
2018-07-06T03:38:12.033Z,9.53
2018-07-06T03:40:51.099Z,9.30
2018-07-06T03:43:29.988Z,9.40
2018-07-06T03:46:09.055Z,9.53
2018-07-06T03:48:48.064Z,10.63
2018-07-06T03:51:26.972Z,10.23
2018-07-06T03:54:05.914Z,10.60
2018-07-06T03:56:44.840Z,9.90
2018-07-06T03:59:23.799Z,10.20
2018-07-06T04:02:02.621Z,11.00
2018-07-06T04:04:41.532Z,10.60
2018-07-06T04:07:20.343Z,10.43
2018-07-06T04:09:59.149Z,10.53
2018-07-06T04:12:38.072Z,11.43
2018-07-06T04:15:17.155Z,10.47
2018-07-06T04:17:56.051Z,10.80
2018-07-06T04:20:34.981Z,10.70
2018-07-06T04:23:13.935Z,10.03
2018-07-06T04:25:52.789Z,9.67
2018-07-06T04:28:31.688Z,10.60
2018-07-06T04:31:10.608Z,10.70
2018-07-06T04:33:49.469Z,10.43
2018-07-06T04:36:28.423Z,9.67
2018-07-06T04:39:07.358Z,10.33
2018-07-06T04:41:46.242Z,10.60
2018-07-06T04:44:19.354Z,10.80
2018-07-06T04:46:58.224Z,10.70
2018-07-06T04:49:37.229Z,10.10
2018-07-06T04:52:16.015Z,10.83
2018-07-06T04:54:54.964Z,10.20
2018-07-06T04:57:33.915Z,10.67
2018-07-06T05:00:12.914Z,10.07
2018-07-06T05:02:51.798Z,10.47
2018-07-06T05:05:30.844Z,10.80
2018-07-06T05:08:09.763Z,10.60
2018-07-06T05:10:48.744Z,9.70
2018-07-06T05:13:27.676Z,9.97
2018-07-06T05:16:06.607Z,9.10
2018-07-06T05:18:45.424Z,8.50
2018-07-06T05:21:24.194Z,8.70
2018-07-06T05:24:03.211Z,8.67
2018-07-06T05:26:42.087Z,8.93
2018-07-06T05:29:21.046Z,8.17
2018-07-06T05:31:59.912Z,8.37
2018-07-06T05:34:39.188Z,8.87
2018-07-06T05:37:18.201Z,7.67
2018-07-06T05:39:57.131Z,8.00
2018-07-06T05:42:36.069Z,9.00
2018-07-06T05:45:14.847Z,8.57
2018-07-06T05:47:53.627Z,8.50
2018-07-06T05:50:32.427Z,8.30
2018-07-06T05:53:11.244Z,8.20
2018-07-06T05:55:50.171Z,8.07
2018-07-06T05:58:29.047Z,8.20
2018-07-06T06:01:07.867Z,8.67
2018-07-06T06:03:46.848Z,8.83
2018-07-06T06:06:25.720Z,10.33
2018-07-06T06:08:52.092Z,8.60
2018-07-06T06:11:19.431Z,9.07
2018-07-06T06:13:46.769Z,10.07
2018-07-06T06:16:14.099Z,9.50
2018-07-06T06:18:41.480Z,9.27
2018-07-06T06:21:08.808Z,9.57
2018-07-06T06:23:36.152Z,9.47
2018-07-06T06:26:03.688Z,9.23
2018-07-06T06:28:31.028Z,9.03
2018-07-06T06:30:58.367Z,8.87
2018-07-06T06:33:25.844Z,9.30
2018-07-06T06:35:53.200Z,9.00
2018-07-06T06:38:20.559Z,9.33
2018-07-06T06:40:47.910Z,8.50
2018-07-06T06:43:15.241Z,9.63
2018-07-06T06:45:42.600Z,9.50
2018-07-06T06:48:09.927Z,9.37
2018-07-06T06:50:37.279Z,8.27
2018-07-06T06:53:04.711Z,8.87
2018-07-06T06:55:32.061Z,8.50
2018-07-06T06:57:59.407Z,8.67
2018-07-06T07:00:27.665Z,8.57
2018-07-06T07:02:54.107Z,8.80
2018-07-06T07:05:21.471Z,8.57
2018-07-06T07:07:48.817Z,8.70
2018-07-06T07:10:16.131Z,8.50
2018-07-06T07:12:43.468Z,8.30
2018-07-06T07:15:10.814Z,9.03
2018-07-06T07:17:38.139Z,9.13
2018-07-06T07:20:05.472Z,8.87
2018-07-06T07:22:32.824Z,9.50
2018-07-06T07:25:00.170Z,8.97
2018-07-06T07:27:27.507Z,9.10
2018-07-06T07:29:54.871Z,9.13
2018-07-06T07:32:22.274Z,10.30
2018-07-06T07:34:49.712Z,9.33
2018-07-06T07:37:17.085Z,8.10
2018-07-06T07:39:44.479Z,8.00
2018-07-06T07:42:11.831Z,9.40
2018-07-06T07:44:39.151Z,8.97
2018-07-06T07:47:06.506Z,9.27
2018-07-06T07:49:33.847Z,8.37
2018-07-06T07:52:12.755Z,9.27
2018-07-06T07:54:45.980Z,7.63
2018-07-06T07:57:13.303Z,8.73
2018-07-06T07:59:41.123Z,8.67
2018-07-06T08:02:08.463Z,8.30
2018-07-06T08:04:35.806Z,7.37
2018-07-06T08:07:03.138Z,8.00
2018-07-06T08:09:30.468Z,7.93
2018-07-06T08:12:01.768Z,8.17
2018-07-06T08:14:29.179Z,7.73
2018-07-06T08:16:56.471Z,7.23
2018-07-06T08:19:23.923Z,7.97
2018-07-06T08:21:51.276Z,7.47
2018-07-06T08:24:19.251Z,7.33
2018-07-06T08:26:46.656Z,7.53
2018-07-06T08:29:13.988Z,8.60
2018-07-06T08:31:41.746Z,7.67
2018-07-06T08:34:20.593Z,7.60
2018-07-06T08:37:52.618Z,7.77
2018-07-06T08:40:21.123Z,6.70
2018-07-06T08:42:50.531Z,6.80
2018-07-06T08:45:17.888Z,7.40
2018-07-06T08:47:45.728Z,7.53
2018-07-06T08:50:13.074Z,7.90
2018-07-06T08:52:41.560Z,7.23
2018-07-06T08:55:08.921Z,7.90
2018-07-06T08:57:37.084Z,7.60
2018-07-06T09:00:04.680Z,7.07
2018-07-06T09:02:32.027Z,8.53
2018-07-06T09:05:00.209Z,7.43
2018-07-06T09:07:27.651Z,6.80
2018-07-06T09:09:55.814Z,7.03
2018-07-06T09:12:23.163Z,7.47
2018-07-06T09:14:50.507Z,7.13
2018-07-06T09:17:18.599Z,5.97
2018-07-06T09:19:46.532Z,7.03
2018-07-06T09:22:14.332Z,5.93
2018-07-06T09:24:42.201Z,5.70
2018-07-06T09:27:09.760Z,6.00
2018-07-06T09:29:37.119Z,6.53
2018-07-06T09:32:04.584Z,6.43
2018-07-06T09:34:31.981Z,6.10
2018-07-06T09:36:59.315Z,6.63
2018-07-06T09:39:26.723Z,7.30
2018-07-06T09:41:54.052Z,7.27
2018-07-06T09:44:21.418Z,7.47
2018-07-06T09:46:48.781Z,6.63
2018-07-06T09:49:16.116Z,6.43
2018-07-06T09:51:43.526Z,6.30
2018-07-06T09:54:11.662Z,6.20
2018-07-06T09:56:38.999Z,6.23
2018-07-06T09:59:06.340Z,7.10
2018-07-06T10:01:33.709Z,7.30
2018-07-06T10:04:01.053Z,5.93
2018-07-06T10:06:28.426Z,5.87
2018-07-06T10:08:55.776Z,6.47
2018-07-06T10:11:23.808Z,6.43
2018-07-06T10:13:51.322Z,6.97
2018-07-06T10:16:18.742Z,5.93
2018-07-06T10:18:46.014Z,6.00
2018-07-06T10:21:13.357Z,6.17
2018-07-06T10:23:40.711Z,6.43
2018-07-06T10:26:08.053Z,6.23
2018-07-06T10:30:51.363Z,6.40
2018-07-06T10:33:18.818Z,6.10
2018-07-06T10:35:46.246Z,6.17
2018-07-06T10:38:13.581Z,6.03
2018-07-06T10:40:41.119Z,5.70
2018-07-06T10:43:08.468Z,6.47
2018-07-06T10:45:35.818Z,5.40
2018-07-06T10:48:03.193Z,5.53
2018-07-06T10:50:30.525Z,6.10
2018-07-06T10:52:57.851Z,6.20
2018-07-06T10:55:25.179Z,6.10
2018-07-06T10:57:52.532Z,5.23
2018-07-06T11:00:19.878Z,5.63
2018-07-06T11:02:47.222Z,5.27
2018-07-06T11:05:14.575Z,6.20
2018-07-06T11:07:41.923Z,6.63
2018-07-06T11:10:09.251Z,6.73
2018-07-06T11:12:36.677Z,6.70
2018-07-06T11:15:04.017Z,6.50
2018-07-06T11:17:31.371Z,6.77
2018-07-06T11:19:58.711Z,6.07
2018-07-06T11:22:26.085Z,5.80
2018-07-06T11:24:53.422Z,6.20
2018-07-06T11:27:20.791Z,5.70
2018-07-06T11:29:48.145Z,5.60
2018-07-06T11:32:15.511Z,5.20
2018-07-06T11:34:42.856Z,5.30
2018-07-06T11:37:10.180Z,5.20
2018-07-06T11:39:37.519Z,4.77
2018-07-06T11:42:04.864Z,5.10
2018-07-06T11:44:32.208Z,4.70
2018-07-06T11:46:59.531Z,5.07
2018-07-06T11:49:26.899Z,4.87
2018-07-06T11:51:54.541Z,4.80
2018-07-06T11:54:21.879Z,4.03
2018-07-06T11:56:49.277Z,4.30
2018-07-06T11:59:16.627Z,4.27
2018-07-06T12:01:44.054Z,4.20
2018-07-06T12:04:11.512Z,3.60
2018-07-06T12:06:38.749Z,3.80
2018-07-06T12:09:06.107Z,3.80
2018-07-06T12:11:33.535Z,3.90
2018-07-06T12:14:00.910Z,4.87
2018-07-06T12:16:28.319Z,3.80
2018-07-06T12:18:55.675Z,3.47
2018-07-06T12:21:23.133Z,4.03
2018-07-06T12:23:50.399Z,3.70
2018-07-06T12:26:17.739Z,3.87
2018-07-06T12:28:45.103Z,3.60
2018-07-06T12:31:12.464Z,3.90
2018-07-06T12:33:39.791Z,3.50
2018-07-06T12:36:07.158Z,4.20
2018-07-06T12:38:34.500Z,3.60
2018-07-06T12:41:01.827Z,4.30
2018-07-06T12:43:29.205Z,3.73
2018-07-06T12:45:56.536Z,3.00
2018-07-06T12:48:23.886Z,2.70
2018-07-06T12:50:51.212Z,3.10
2018-07-06T12:53:18.550Z,2.83
2018-07-06T12:55:45.903Z,3.03
2018-07-06T12:58:13.279Z,3.13
2018-07-06T13:00:40.587Z,3.00
2018-07-06T13:03:07.930Z,3.00
2018-07-06T13:05:35.297Z,2.83
2018-07-06T13:08:02.633Z,2.50
2018-07-06T13:10:30.049Z,2.90
2018-07-06T13:12:57.348Z,3.00
2018-07-06T13:15:24.675Z,2.40
2018-07-06T13:17:51.999Z,2.70
2018-07-06T13:20:19.318Z,2.80
2018-07-06T13:22:46.661Z,2.77
2018-07-06T13:25:14.013Z,2.70
2018-07-06T13:27:41.335Z,2.87
2018-07-06T13:30:08.791Z,2.70
2018-07-06T13:32:36.185Z,2.50
2018-07-06T13:35:03.533Z,2.67
2018-07-06T13:37:30.851Z,2.40
2018-07-06T13:39:58.447Z,2.60
2018-07-06T13:42:25.830Z,3.20
2018-07-06T13:44:53.179Z,2.63
2018-07-06T13:47:20.537Z,2.60
2018-07-06T13:49:47.933Z,3.13
2018-07-06T13:52:15.260Z,2.63
2018-07-06T13:54:42.632Z,2.77
2018-07-06T13:57:09.981Z,2.50
2018-07-06T13:59:37.440Z,2.80
2018-07-06T14:02:04.879Z,2.40
2018-07-06T14:04:32.248Z,2.33
2018-07-06T14:06:59.571Z,2.40
2018-07-06T14:09:26.917Z,2.60
2018-07-06T14:11:54.647Z,2.70
2018-07-06T14:14:21.987Z,2.43
2018-07-06T14:16:49.307Z,2.50
2018-07-06T14:19:16.648Z,2.30
2018-07-06T14:21:43.966Z,2.20
2018-07-06T14:24:11.290Z,2.50
2018-07-06T14:26:38.621Z,2.47
2018-07-06T14:29:05.959Z,2.23
2018-07-06T14:31:33.347Z,2.50
2018-07-06T14:34:00.672Z,2.37
2018-07-06T14:36:28.935Z,2.10
2018-07-06T14:38:56.276Z,2.10
2018-07-06T14:41:23.599Z,2.50
2018-07-06T14:43:50.924Z,3.27
2018-07-06T14:46:18.272Z,2.40
2018-07-06T14:48:45.612Z,2.40
2018-07-06T14:51:12.947Z,2.50
2018-07-06T14:53:40.275Z,2.23
2018-07-06T14:56:07.613Z,2.60
2018-07-06T14:58:34.971Z,2.50
2018-07-06T15:01:02.291Z,2.60
2018-07-06T15:03:29.640Z,2.10
2018-07-06T15:05:56.972Z,2.70
2018-07-06T15:08:24.355Z,2.30
2018-07-06T15:10:51.700Z,2.30
2018-07-06T15:13:19.043Z,2.23
2018-07-06T15:15:46.379Z,2.37
2018-07-06T15:18:13.734Z,2.47
2018-07-06T15:20:41.096Z,2.70
2018-07-06T15:23:08.419Z,2.23
2018-07-06T15:25:35.783Z,2.60
2018-07-06T15:29:32.720Z,2.27
2018-07-06T15:32:00.084Z,2.20
2018-07-06T15:34:27.429Z,2.47
2018-07-06T15:36:54.775Z,2.20
2018-07-06T15:39:22.110Z,2.70
2018-07-06T15:41:49.467Z,2.60
2018-07-06T15:44:16.827Z,2.57
2018-07-06T15:46:44.179Z,2.70
2018-07-06T15:49:11.571Z,2.43
2018-07-06T15:51:38.975Z,2.40
2018-07-06T15:54:06.312Z,2.63
2018-07-06T15:56:33.659Z,2.60
2018-07-06T15:59:00.990Z,2.50
2018-07-06T16:01:28.352Z,2.80
2018-07-06T16:03:55.719Z,2.60
2018-07-06T16:06:23.095Z,2.83
2018-07-06T16:08:50.446Z,2.57
2018-07-06T16:11:17.779Z,2.73
2018-07-06T16:13:45.116Z,2.33
2018-07-06T16:16:12.458Z,2.80
2018-07-06T16:18:39.808Z,3.03
2018-07-06T16:21:07.147Z,2.60
2018-07-06T16:23:34.532Z,4.20
2018-07-06T16:26:01.856Z,2.70
2018-07-06T16:28:29.203Z,3.87
2018-07-06T16:30:56.551Z,4.23
2018-07-06T16:33:23.906Z,3.07
2018-07-06T16:35:51.219Z,3.33
2018-07-06T16:38:18.561Z,3.00
2018-07-06T16:40:45.893Z,2.80
2018-07-06T16:43:13.240Z,2.40
2018-07-06T16:45:40.563Z,2.70
2018-07-06T16:48:07.892Z,2.93
2018-07-06T16:50:35.227Z,2.57
2018-07-06T16:53:02.910Z,2.80
2018-07-06T16:55:30.261Z,2.43
2018-07-06T16:57:57.605Z,3.77
2018-07-06T17:00:24.951Z,2.60
2018-07-06T17:02:52.308Z,2.70
2018-07-06T17:05:19.647Z,2.30
2018-07-06T17:07:46.994Z,2.70
2018-07-06T17:10:14.353Z,2.40
2018-07-06T17:12:41.697Z,2.60
2018-07-06T17:15:09.023Z,2.37
2018-07-06T17:17:36.355Z,2.60
2018-07-06T17:20:03.699Z,2.83
2018-07-06T17:22:31.042Z,2.37
2018-07-06T17:24:58.374Z,2.90
2018-07-06T17:27:25.713Z,2.70
2018-07-06T17:29:53.079Z,2.57
2018-07-06T17:32:20.431Z,3.00
2018-07-06T17:34:47.751Z,2.90
2018-07-06T17:37:15.095Z,3.17
2018-07-06T17:39:42.779Z,2.97
2018-07-06T17:42:10.132Z,2.80
2018-07-06T17:44:37.484Z,3.27
2018-07-06T17:47:05.092Z,2.97
2018-07-06T17:49:32.461Z,2.80
2018-07-06T17:51:59.820Z,2.43
2018-07-06T17:54:27.163Z,2.73
2018-07-06T17:56:54.519Z,3.10
2018-07-06T17:59:21.854Z,2.73
2018-07-06T18:01:49.231Z,3.17
2018-07-06T18:04:16.576Z,3.23
2018-07-06T18:06:43.915Z,2.90
2018-07-06T18:09:11.280Z,2.80
2018-07-06T18:11:38.632Z,3.53
2018-07-06T18:14:05.975Z,2.93
2018-07-06T18:16:33.317Z,3.30
2018-07-06T18:19:00.663Z,3.10
2018-07-06T18:21:28.005Z,3.10
2018-07-06T18:23:55.331Z,4.30
2018-07-06T18:26:22.963Z,3.43
2018-07-06T18:28:50.310Z,3.20
2018-07-06T18:31:17.724Z,3.10
2018-07-06T18:33:45.073Z,3.10
2018-07-06T18:36:12.447Z,3.10
2018-07-06T18:38:39.783Z,3.10
2018-07-06T18:41:07.127Z,3.40
2018-07-06T18:43:34.474Z,3.07
2018-07-06T18:46:01.808Z,3.23
2018-07-06T18:48:29.156Z,3.10
2018-07-06T18:50:56.504Z,3.20
2018-07-06T18:53:23.858Z,3.33
2018-07-06T18:55:51.195Z,3.50
2018-07-06T18:58:18.538Z,2.70
2018-07-06T19:00:45.897Z,2.87
2018-07-06T19:03:13.332Z,2.70
2018-07-06T19:05:40.688Z,3.13
2018-07-06T19:08:08.028Z,2.80
2018-07-06T19:10:35.367Z,2.80
2018-07-06T19:13:02.735Z,2.80
2018-07-06T19:15:30.080Z,3.00
2018-07-06T19:17:57.419Z,2.50
2018-07-06T19:20:24.746Z,2.53
2018-07-06T19:22:52.120Z,2.90
2018-07-06T19:25:19.468Z,3.00
2018-07-06T19:27:46.809Z,2.70
2018-07-06T19:30:14.165Z,2.97
2018-07-06T19:32:41.780Z,3.13
2018-07-06T19:35:09.158Z,2.80
2018-07-06T19:37:36.483Z,2.63
2018-07-06T19:40:03.856Z,3.20
2018-07-06T19:42:31.214Z,3.37
2018-07-06T19:44:58.579Z,3.00
2018-07-06T19:47:25.972Z,3.07
2018-07-06T19:49:53.331Z,3.17
2018-07-06T19:52:20.862Z,2.93
2018-07-06T19:54:48.196Z,3.30
2018-07-06T19:57:15.549Z,2.57
2018-07-06T19:59:42.971Z,2.63
2018-07-06T20:02:10.499Z,2.60
2018-07-06T20:04:37.866Z,3.10
2018-07-06T20:07:05.209Z,2.63
2018-07-06T20:09:32.536Z,2.73
2018-07-06T20:11:59.888Z,2.60
2018-07-06T20:14:27.240Z,2.47
2018-07-06T20:16:54.578Z,2.83
2018-07-06T20:19:22.019Z,3.00
2018-07-06T20:21:49.325Z,2.53
2018-07-06T20:24:16.679Z,2.60
2018-07-06T20:26:44.036Z,2.30
2018-07-06T20:29:11.391Z,3.10
2018-07-06T20:31:38.743Z,3.10
2018-07-06T20:34:06.089Z,3.00
2018-07-06T20:36:33.511Z,2.77
2018-07-06T20:39:00.807Z,2.33
2018-07-06T20:41:28.167Z,2.87
2018-07-06T20:43:55.523Z,2.67
2018-07-06T20:46:22.880Z,3.43
2018-07-06T20:48:50.219Z,3.17
2018-07-06T20:51:17.562Z,2.53
2018-07-06T20:53:45.063Z,2.40
2018-07-06T20:56:12.395Z,2.50
2018-07-06T20:58:39.758Z,2.70
2018-07-06T21:01:07.099Z,2.60
2018-07-06T21:03:34.437Z,2.40
2018-07-06T21:06:02.031Z,2.47
2018-07-06T21:08:29.379Z,2.77
2018-07-06T21:10:56.732Z,3.00
2018-07-06T21:13:24.090Z,2.53
2018-07-06T21:15:51.436Z,2.33
2018-07-06T21:18:18.782Z,2.10
2018-07-06T21:20:46.206Z,2.70
2018-07-06T21:23:13.548Z,2.77
2018-07-06T21:25:41.435Z,2.73
2018-07-06T21:28:08.790Z,2.60
2018-07-06T21:30:36.123Z,2.93
2018-07-06T21:33:03.476Z,2.60
2018-07-06T21:35:30.811Z,2.80
2018-07-06T21:37:58.155Z,3.00
2018-07-06T21:40:25.495Z,2.87
2018-07-06T21:42:52.823Z,2.67
2018-07-06T21:45:20.189Z,3.27
2018-07-06T21:47:47.535Z,2.37
2018-07-06T21:50:14.978Z,3.67
2018-07-06T21:54:11.947Z,2.93
2018-07-06T21:56:39.294Z,3.10
2018-07-06T21:59:06.653Z,3.50
2018-07-06T22:01:34.064Z,2.80
2018-07-06T22:04:01.395Z,4.17
2018-07-06T22:06:28.732Z,3.00
2018-07-06T22:08:56.207Z,3.43
2018-07-06T22:11:23.635Z,3.50
2018-07-06T22:13:51.155Z,4.03
2018-07-06T22:16:18.480Z,3.93
2018-07-06T22:18:45.858Z,4.27
2018-07-06T22:21:13.213Z,3.47
2018-07-06T22:23:40.544Z,3.30
2018-07-06T22:26:07.895Z,3.40
2018-07-06T22:28:35.251Z,3.13
2018-07-06T22:31:02.579Z,3.57
2018-07-06T22:33:29.908Z,3.17
2018-07-06T22:35:57.237Z,3.30
2018-07-06T22:38:24.591Z,3.57
2018-07-06T22:40:51.921Z,2.53
2018-07-06T22:43:19.356Z,2.70
2018-07-06T22:45:46.676Z,3.43
2018-07-06T22:48:14.025Z,2.20
2018-07-06T22:50:41.390Z,2.50
2018-07-06T22:53:08.735Z,2.20
2018-07-06T22:55:36.102Z,2.20
2018-07-06T22:58:03.455Z,2.23
2018-07-06T23:00:30.790Z,1.80
2018-07-06T23:02:59.323Z,2.00
2018-07-06T23:05:26.681Z,1.90
2018-07-06T23:07:54.055Z,2.10
2018-07-06T23:10:21.366Z,2.83
2018-07-06T23:12:48.737Z,2.10
2018-07-06T23:15:16.237Z,2.17
2018-07-06T23:17:43.590Z,2.20
2018-07-06T23:20:10.935Z,2.57
2018-07-06T23:23:05.281Z,2.37
2018-07-06T23:25:35.913Z,2.27
2018-07-06T23:28:03.298Z,2.60
2018-07-06T23:30:30.631Z,2.50
2018-07-06T23:32:58.968Z,2.80
2018-07-06T23:35:26.367Z,2.17
2018-07-06T23:37:54.080Z,2.10
2018-07-06T23:40:21.443Z,2.40
2018-07-06T23:42:48.770Z,1.67
2018-07-06T23:45:16.103Z,1.70
2018-07-06T23:47:43.906Z,1.93
2018-07-06T23:50:11.258Z,2.30
2018-07-06T23:52:38.836Z,2.07
2018-07-06T23:55:06.160Z,1.50
2018-07-06T23:57:33.564Z,1.67
